Apollo Troth — 3FDZ2 — position and weather

sailwx.info

Track history (hours):
 
Tides and Currents Weather Stations Pressure Air Temp Water Temp Dewpoint Dewpoint Depression Visibility Wind Speed Wind Dir Waves Ship Positions

Apollo Troth

Last reported at 2018-Jan-31 19:34 UTC. Time now 2018-Feb-20 05:31 UTC.
Position N 01°14' E 104°02'.
Warning: this ship's position is 19 days out of date.

Length 104 m; draft 7.1 m.

Type: Ship. MMSI: 357242000.

Date/timePositionNaut miles runAvg speedWind from/ knotsBaromVisibWave heightAir tempDewpointWater temp
2018-Jan-31 19:34N 01°14' E 104°02'111.3
2018-Jan-31 19:30N 01°14' E 104°01'611.2
2018-Jan-31 19:00N 01°13' E 103°56'510.7
2018-Jan-31 18:30N 01°11' E 103°51'4 7.8
2018-Jan-31 18:00N 01°13' E 103°48'610.3
2018-Jan-31 17:28N 01°17' E 103°44'1 3.1
2018-Jan-31 17:00N 01°18' E 103°43'0 0.1
2018-Jan-31 16:30N 01°18' E 103°43'0 0.0
2018-Jan-31 16:00N 01°18' E 103°43'0 0.1
2018-Jan-31 15:30N 01°18' E 103°43'0 0.1
2018-Jan-31 15:00N 01°18' E 103°43'0 0.1
2018-Jan-31 14:30N 01°19' E 103°43'0 0.0
2018-Jan-31 13:00N 01°18' E 103°43'0 0.1
2018-Jan-31 12:30N 01°18' E 103°43'0 0.0
2018-Jan-31 12:00N 01°18' E 103°43'0 0.1
2018-Jan-31 11:30N 01°19' E 103°43'0 0.1
2018-Jan-31 11:00N 01°19' E 103°43'0 0.0
2018-Jan-31 10:30N 01°18' E 103°43'0 0.1
2018-Jan-31 10:00N 01°19' E 103°43'0 0.1
2018-Jan-31 09:30N 01°18' E 103°43'0 0.0
2018-Jan-31 09:00N 01°18' E 103°43'0 0.1
2018-Jan-31 08:30N 01°18' E 103°43'0 0.1
2018-Jan-31 08:00N 01°18' E 103°43'0 0.1
2018-Jan-31 07:30N 01°18' E 103°43'0 0.1
2018-Jan-31 07:00N 01°18' E 103°43'0 0.1
2018-Jan-31 06:30N 01°18' E 103°43'0 0.1
2018-Jan-31 06:00N 01°18' E 103°43'0 0.0
2018-Jan-31 05:30N 01°18' E 103°43'0 0.1
2018-Jan-31 05:00N 01°18' E 103°43'0 0.0
2018-Jan-31 04:30N 01°19' E 103°43'0 0.1
2018-Jan-31 04:00N 01°19' E 103°43'0 0.0
2018-Jan-31 03:30N 01°18' E 103°43'0 0.0
2018-Jan-31 03:00N 01°18' E 103°43'0 0.0
2018-Jan-31 02:30N 01°18' E 103°43'0 0.0
2018-Jan-31 02:00N 01°19' E 103°43'0 0.1
2018-Jan-31 01:30N 01°19' E 103°43'0 0.1
2018-Jan-31 01:00N 01°18' E 103°43'0 0.1
2018-Jan-31 00:00N 01°18' E 103°43'0 0.0
2018-Jan-30 23:30N 01°18' E 103°43'0 0.4
2018-Jan-30 22:57N 01°18' E 103°43'2 4.7
2018-Jan-30 22:30N 01°17' E 103°45'9 9.1
2018-Jan-30 21:30N 01°13' E 103°53'3 6.0
2018-Jan-30 21:00N 01°14' E 103°56'4 7.8
2018-Jan-30 20:30N 01°15' E 103°60'  
Track history (hours):
 
Tides and Currents Weather Stations Pressure Air Temp Water Temp Dewpoint Dewpoint Depression Visibility Wind Speed Wind Dir Waves Ship Positions

Apollo Troth

Last reported at 2018-Jan-31 19:34 UTC. Time now 2018-Feb-20 05:31 UTC.
Position N 01°14' E 104°02'.
Warning: this ship's position is 19 days out of date.

Length 104 m; draft 7.1 m.

Type: Ship. MMSI: 357242000.

Date/timePositionNaut miles runAvg speedWind from/ knotsBaromVisibWave heightAir tempDewpointWater temp
2018-Jan-31 19:34N 01°14' E 104°02'111.3
2018-Jan-31 19:30N 01°14' E 104°01'611.2
2018-Jan-31 19:00N 01°13' E 103°56'510.7
2018-Jan-31 18:30N 01°11' E 103°51'4 7.8
2018-Jan-31 18:00N 01°13' E 103°48'610.3
2018-Jan-31 17:28N 01°17' E 103°44'1 3.1
2018-Jan-31 17:00N 01°18' E 103°43'0 0.1
2018-Jan-31 16:30N 01°18' E 103°43'0 0.0
2018-Jan-31 16:00N 01°18' E 103°43'0 0.1
2018-Jan-31 15:30N 01°18' E 103°43'0 0.1
2018-Jan-31 15:00N 01°18' E 103°43'0 0.1
2018-Jan-31 14:30N 01°19' E 103°43'0 0.0
2018-Jan-31 13:00N 01°18' E 103°43'0 0.1
2018-Jan-31 12:30N 01°18' E 103°43'0 0.0
2018-Jan-31 12:00N 01°18' E 103°43'0 0.1
2018-Jan-31 11:30N 01°19' E 103°43'0 0.1
2018-Jan-31 11:00N 01°19' E 103°43'0 0.0
2018-Jan-31 10:30N 01°18' E 103°43'0 0.1
2018-Jan-31 10:00N 01°19' E 103°43'0 0.1
2018-Jan-31 09:30N 01°18' E 103°43'0 0.0
2018-Jan-31 09:00N 01°18' E 103°43'0 0.1
2018-Jan-31 08:30N 01°18' E 103°43'0 0.1
2018-Jan-31 08:00N 01°18' E 103°43'0 0.1
2018-Jan-31 07:30N 01°18' E 103°43'0 0.1
2018-Jan-31 07:00N 01°18' E 103°43'0 0.1
2018-Jan-31 06:30N 01°18' E 103°43'0 0.1
2018-Jan-31 06:00N 01°18' E 103°43'0 0.0
2018-Jan-31 05:30N 01°18' E 103°43'0 0.1
2018-Jan-31 05:00N 01°18' E 103°43'0 0.0
2018-Jan-31 04:30N 01°19' E 103°43'0 0.1
2018-Jan-31 04:00N 01°19' E 103°43'0 0.0
2018-Jan-31 03:30N 01°18' E 103°43'0 0.0
2018-Jan-31 03:00N 01°18' E 103°43'0 0.0
2018-Jan-31 02:30N 01°18' E 103°43'0 0.0
2018-Jan-31 02:00N 01°19' E 103°43'0 0.1
2018-Jan-31 01:30N 01°19' E 103°43'0 0.1
2018-Jan-31 01:00N 01°18' E 103°43'0 0.1
2018-Jan-31 00:00N 01°18' E 103°43'0 0.0
2018-Jan-30 23:30N 01°18' E 103°43'0 0.4
2018-Jan-30 22:57N 01°18' E 103°43'2 4.7
2018-Jan-30 22:30N 01°17' E 103°45'9 9.1
2018-Jan-30 21:30N 01°13' E 103°53'3 6.0
2018-Jan-30 21:00N 01°14' E 103°56'4 7.8
2018-Jan-30 20:30N 01°15' E 103°60'  

Dump ship's entire track history